Etusivu
METAR-TAF:

METAR-TAF

Lentoasemat :

Starkville, Mississippi, Yhdysvallat

Leveyspiiri: 33-25-59N, Pituuspiiri: 088-50-55W, korkeus merenpinnasta: 101 m

Tämänhetkinen sää

Tämä raportti tehtiin 21 minuuttia sitten, kello 06.55 UTC
tyyntä
Lämpötila 21°C
Kosteus 94%
Ilmanpaine 1016 hPa

METAR: KSTF 170655Z AUTO 00000KT 21/20 A3001 RMK AO2 SKY OBSCURED PWINO

Aika: 02:16 (07:16 UTC)


TAF: puuttuu

Säähavainnot ja -ennusteet yli 4000 lentoasemalta (METAR- ja TAF-raportit).

Käytössä olevat sääasemat on merkitty karttaan keltaisilla ja punaisilla pisteillä.

Aseta hiiri pisteen päälle nähdäksesi sääaseman nimen.

Klikkaa sitten nähdäksesi säähavainnot ja -ennusteet.

Kartan vaihtaminen: klikkaa mustalla rastilla varustettuja vihreitä pisteitä, niin voit zoomata sisään; viivalla varustettua vihreää pistettä, niin voit zoomata ulos tai vihreitä nuolia, niin pääset viereisille kartoille.


METAR-TAF: